Time;durP1;ratioP1;P1;durP2;ratioP2;P2;SDS_P1;SDS_P2;PMS_P1;PMS_P2;Temp;Humidity;BMP_temperature;BMP_pressure;BME280_temperature;BME280_humidity;BME280_pressure;Samples;Min_cycle;Max_cycle;Signal;HPM_P1;HPM_P2
2023/03/03 00:04:05;;;;;;;;;;;;;;;;;;4998267;28;6920;-49
2023/03/03 00:09:33;;;;;;;;;;;;;;;;;;4997862;28;6705;-51
2023/03/03 00:12:01;;;;;;;;;;;;;;;;;;4998549;28;7361;-46
2023/03/03 00:14:36;;;;;;;;;;;;;;;;;;4998912;28;7220;-49
2023/03/03 00:17:15;;;;;;;;;;;;;;;;;;4998140;28;6923;-48
2023/03/03 00:19:41;;;;;;;;;;;;;;;;;;4998122;28;7171;-49
2023/03/03 00:31:02;;;;;;;;;;;;;;;;;;4998294;28;6928;-47
2023/03/03 00:33:31;;;;;;;;;;;;;;;;;;5005786;28;7190;-46
2023/03/03 00:36:15;;;;;;;;;;;;;;;;;;5037284;28;7070;-50
2023/03/03 00:38:48;;;;;;;;;;;;;;;;;;5037178;28;7157;-47
2023/03/03 00:41:22;;;;;;;;;;;;;;;;;;5037082;28;6959;-49
2023/03/03 00:43:59;;;;;;;;;;;;;;;;;;5036632;28;7176;-47
2023/03/03 00:46:25;;;;;;;;;;;;;;;;;;5036903;28;7066;-48
2023/03/03 00:49:02;;;;;;;;;;;;;;;;;;5036934;28;7370;-50
2023/03/03 00:51:29;;;;;;;;;;;;;;;;;;5036583;28;6943;-49
2023/03/03 00:53:56;;;;;;;;;;;;;;;;;;5036930;28;7083;-48
2023/03/03 01:05:30;;;;;;;;;;;;;;;;;;5036296;28;6685;-49
2023/03/03 01:07:55;;;;;;;;;;;;;;;;;;5036485;28;7130;-47
2023/03/03 01:10:21;;;;;;;;;;;;;;;;;;5036494;28;7111;-47
2023/03/03 01:15:47;;;;;;;;;;;;;;;;;;5036612;28;6903;-47
2023/03/03 01:21:15;;;;;;;;;;;;;;;;;;5036529;28;6684;-47
2023/03/03 01:23:40;;;;;;;;;;;;;;;;;;5036907;28;7161;-50
2023/03/03 01:26:10;;;;;;;;;;;;;;;;;;5036244;28;6924;-47
2023/03/03 01:28:36;;;;;;;;;;;;;;;;;;5036640;28;6946;-47
2023/03/03 01:31:04;;;;;;;;;;;;;;;;;;5035871;28;7782;-47
2023/03/03 01:33:46;;;;;;;;;;;;;;;;;;5035804;28;7190;-48
2023/03/03 01:36:12;;;;;;;;;;;;;;;;;;5036041;28;7184;-49
2023/03/03 01:41:44;;;;;;;;;;;;;;;;;;5035206;28;6677;-47
2023/03/03 01:44:14;;;;;;;;;;;;;;;;;;5035553;28;7351;-47
2023/03/03 01:52:46;;;;;;;;;;;;;;;;;;5035478;28;6960;-46
2023/03/03 01:55:45;;;;;;;;;;;;;;;;;;5035709;28;7137;-48
2023/03/03 01:58:15;;;;;;;;;;;;;;;;;;5035625;28;7206;-49
2023/03/03 02:00:44;;;;;;;;;;;;;;;;;;5035673;28;7124;-47
2023/03/03 02:09:32;;;;;;;;;;;;;;;;;;5035295;28;6681;-48
2023/03/03 02:12:00;;;;;;;;;;;;;;;;;;5035240;28;7086;-49
2023/03/03 02:17:29;;;;;;;;;;;;;;;;;;5035247;28;6911;-48
2023/03/03 02:25:55;;;;;;;;;;;;;;;;;;5035240;28;6686;-48
2023/03/03 02:31:28;;;;;;;;;;;;;;;;;;5034936;28;6935;-50
2023/03/03 02:36:56;;;;;;;;;;;;;;;;;;5034881;28;6920;-49
2023/03/03 02:39:25;;;;;;;;;;;;;;;;;;5035013;28;7152;-48
2023/03/03 02:44:54;;;;;;;;;;;;;;;;;;5034743;28;6684;-49
2023/03/03 02:47:29;;;;;;;;;;;;;;;;;;5034525;28;7108;-49
2023/03/03 02:49:54;;;;;;;;;;;;;;;;;;5034835;28;7204;-49
2023/03/03 02:52:31;;;;;;;;;;;;;;;;;;5035078;28;7155;-49
2023/03/03 02:54:56;;;;;;;;;;;;;;;;;;5034865;28;6943;-47
2023/03/03 02:57:22;;;;;;;;;;;;;;;;;;5034779;28;7463;-51
2023/03/03 02:59:48;;;;;;;;;;;;;;;;;;5034643;28;6995;-48
2023/03/03 03:02:13;;;;;;;;;;;;;;;;;;5035445;28;7257;-47
2023/03/03 03:04:39;;;;;;;;;;;;;;;;;;5034660;28;6921;-49
2023/03/03 03:07:04;;;;;;;;;;;;;;;;;;5034375;28;6999;-49
2023/03/03 03:09:30;;;;;;;;;;;;;;;;;;5034701;28;7202;-49
2023/03/03 03:12:01;;;;;;;;;;;;;;;;;;5016683;28;8413;-48
2023/03/03 03:14:27;;;;;;;;;;;;;;;;;;5034673;28;7008;-49
2023/03/03 03:16:53;;;;;;;;;;;;;;;;;;5034579;28;7021;-49
2023/03/03 03:19:18;;;;;;;;;;;;;;;;;;5034296;28;6999;-49
2023/03/03 03:21:44;;;;;;;;;;;;;;;;;;5034461;28;7524;-51
2023/03/03 03:24:26;;;;;;;;;;;;;;;;;;5034585;28;7030;-47
2023/03/03 03:26:52;;;;;;;;;;;;;;;;;;5034322;28;7384;-49
2023/03/03 03:32:22;;;;;;;;;;;;;;;;;;5034157;28;7030;-50
2023/03/03 03:35:23;;;;;;;;;;;;;;;;;;5034282;28;7201;-47
2023/03/03 03:37:48;;;;;;;;;;;;;;;;;;5035236;28;7378;-48
2023/03/03 03:40:14;;;;;;;;;;;;;;;;;;5016586;28;7151;-48
2023/03/03 03:45:43;;;;;;;;;;;;;;;;;;5034192;28;6904;-49
2023/03/03 03:48:09;;;;;;;;;;;;;;;;;;5034190;28;7048;-48
2023/03/03 03:50:35;;;;;;;;;;;;;;;;;;5034283;28;7564;-47
2023/03/03 03:53:08;;;;;;;;;;;;;;;;;;5034218;28;7164;-48
2023/03/03 03:55:34;;;;;;;;;;;;;;;;;;5016775;28;8777;-48
2023/03/03 04:04:05;;;;;;;;;;;;;;;;;;5035925;28;6736;-48
2023/03/03 04:06:31;;;;;;;;;;;;;;;;;;5037747;28;6958;-48
2023/03/03 04:09:15;;;;;;;;;;;;;;;;;;5038159;28;7123;-46
2023/03/03 04:11:40;;;;;;;;;;;;;;;;;;5037557;28;6995;-47
2023/03/03 04:17:18;;;;;;;;;;;;;;;;;;5037320;28;6709;-47
2023/03/03 04:19:44;;;;;;;;;;;;;;;;;;5037570;28;7341;-49
2023/03/03 04:22:11;;;;;;;;;;;;;;;;;;5037100;28;7169;-48
2023/03/03 04:25:03;;;;;;;;;;;;;;;;;;5037484;28;7239;-47
2023/03/03 04:27:34;;;;;;;;;;;;;;;;;;5037210;28;7192;-48
2023/03/03 04:30:22;;;;;;;;;;;;;;;;;;5037395;28;7394;-47
2023/03/03 04:32:48;;;;;;;;;;;;;;;;;;5037683;28;8791;-47
2023/03/03 04:35:14;;;;;;;;;;;;;;;;;;5031438;28;7159;-48
2023/03/03 04:40:58;;;;;;;;;;;;;;;;;;5036820;28;6702;-47
2023/03/03 04:43:24;;;;;;;;;;;;;;;;;;5036652;28;7353;-47
2023/03/03 04:46:20;;;;;;;;;;;;;;;;;;5030532;28;7165;-46
2023/03/03 04:48:46;;;;;;;;;;;;;;;;;;5017079;28;7400;-48
2023/03/03 04:54:14;;;;;;;;;;;;;;;;;;5012734;28;6935;-48
2023/03/03 04:56:40;;;;;;;;;;;;;;;;;;5014168;28;6947;-47
2023/03/03 04:59:11;;;;;;;;;;;;;;;;;;5017156;28;6931;-49
2023/03/03 05:01:37;;;;;;;;;;;;;;;;;;4999941;28;8503;-48
2023/03/03 05:04:03;;;;;;;;;;;;;;;;;;5016883;28;7139;-48
2023/03/03 05:06:28;;;;;;;;;;;;;;;;;;5016788;28;7228;-51
2023/03/03 05:08:54;;;;;;;;;;;;;;;;;;5016818;28;7176;-47
2023/03/03 05:14:46;;;;;;;;;;;;;;;;;;5016470;28;7031;-48
2023/03/03 05:17:12;;;;;;;;;;;;;;;;;;5016616;28;7216;-52
2023/03/03 05:19:37;;;;;;;;;;;;;;;;;;5016623;28;7353;-47
2023/03/03 05:25:04;;;;;;;;;;;;;;;;;;5016521;28;7078;-47
2023/03/03 05:30:21;;;;;;;;;;;;;;;;;;5016516;28;6916;-47
2023/03/03 05:32:47;;;;;;;;;;;;;;;;;;5015968;28;7242;-51
2023/03/03 05:38:15;;;;;;;;;;;;;;;;;;5016083;28;6705;-47
2023/03/03 05:46:38;;;;;;;;;;;;;;;;;;5015646;28;7006;-48
2023/03/03 05:49:04;;;;;;;;;;;;;;;;;;5016226;28;7241;-48
2023/03/03 05:51:29;;;;;;;;;;;;;;;;;;5016074;28;7056;-46
2023/03/03 05:53:55;;;;;;;;;;;;;;;;;;5015565;28;6944;-49
2023/03/03 05:56:22;;;;;;;;;;;;;;;;;;5016555;28;7184;-48
2023/03/03 05:58:47;;;;;;;;;;;;;;;;;;5015956;28;6942;-46
2023/03/03 06:01:15;;;;;;;;;;;;;;;;;;5015876;28;7023;-46
2023/03/03 06:03:41;;;;;;;;;;;;;;;;;;5015379;28;8179;-47
2023/03/03 06:06:11;;;;;;;;;;;;;;;;;;5015661;28;7394;-48
2023/03/03 06:08:36;;;;;;;;;;;;;;;;;;5015701;28;7157;-59
2023/03/03 06:14:16;;;;;;;;;;;;;;;;;;5015513;28;6733;-50
2023/03/03 06:16:41;;;;;;;;;;;;;;;;;;5015249;28;6979;-49
2023/03/03 06:19:07;;;;;;;;;;;;;;;;;;5016645;28;7144;-51
2023/03/03 06:24:35;;;;;;;;;;;;;;;;;;5015270;28;6927;-50
2023/03/03 06:27:00;;;;;;;;;;;;;;;;;;5014648;28;6964;-50
2023/03/03 06:29:27;;;;;;;;;;;;;;;;;;5015427;28;6787;-52
2023/03/03 06:41:24;;;;;;;;;;;;;;;;;;5014984;28;6988;-48
2023/03/03 06:43:50;;;;;;;;;;;;;;;;;;5014896;28;6938;-53
2023/03/03 06:46:16;;;;;;;;;;;;;;;;;;5014903;28;7340;-48
2023/03/03 06:49:04;;;;;;;;;;;;;;;;;;5013825;28;7028;-52
2023/03/03 06:51:32;;;;;;;;;;;;;;;;;;5015039;28;7322;-52
2023/03/03 06:54:01;;;;;;;;;;;;;;;;;;5015076;28;7268;-52
2023/03/03 06:56:36;;;;;;;;;;;;;;;;;;5015021;28;7387;-55
2023/03/03 06:59:05;;;;;;;;;;;;;;;;;;5015141;28;6992;-50
2023/03/03 07:01:35;;;;;;;;;;;;;;;;;;5015594;28;6907;-52
2023/03/03 07:18:54;;;;;;;;;;;;;;;;;;5002586;28;6972;-51
2023/03/03 07:24:29;;;;;;;;;;;;;;;;;;5014548;28;6940;-53
2023/03/03 07:30:23;;;;;;;;;;;;;;;;;;5014408;28;7031;-55
2023/03/03 07:32:52;;;;;;;;;;;;;;;;;;5014386;28;7200;-56
2023/03/03 07:38:40;;;;;;;;;;;;;;;;;;5015245;28;6717;-53
2023/03/03 07:41:19;;;;;;;;;;;;;;;;;;5057054;23;7007;-60
2023/03/03 07:43:49;;;;;;;;;;;;;;;;;;5055392;23;8498;-62
2023/03/03 07:49:34;;;;;;;;;;;;;;;;;;5018020;28;6805;-61
2023/03/03 07:52:01;;;;;;;;;;;;;;;;;;5018229;28;7421;-61
2023/03/03 08:00:59;;;;;;;;;;;;;;;;;;5017876;28;6936;-62
2023/03/03 08:03:25;;;;;;;;;;;;;;;;;;5064265;23;7145;-48
2023/03/03 08:06:22;;;;;;;;;;;;;;;;;;5018178;28;6952;-47
2023/03/03 08:08:48;;;;;;;;;;;;;;;;;;5017994;28;7344;-49
2023/03/03 08:11:13;;;;;;;;;;;;;;;;;;5018328;28;6972;-48
2023/03/03 08:16:42;;;;;;;;;;;;;;;;;;5017679;28;6995;-51
2023/03/03 08:19:11;;;;;;;;;;;;;;;;;;5017795;28;6916;-50
2023/03/03 08:21:38;;;;;;;;;;;;;;;;;;5017845;28;7206;-51
2023/03/03 08:24:04;;;;;;;;;;;;;;;;;;5017900;28;6968;-50
2023/03/03 08:26:52;;;;;;;;;;;;;;;;;;5018387;28;6920;-50
2023/03/03 08:32:20;;;;;;;;;;;;;;;;;;5017288;28;6967;-50
2023/03/03 08:34:45;;;;;;;;;;;;;;;;;;5017570;28;7016;-49
2023/03/03 08:40:14;;;;;;;;;;;;;;;;;;5017234;28;6933;-48
2023/03/03 08:42:39;;;;;;;;;;;;;;;;;;5017498;28;7042;-48
2023/03/03 08:45:05;;;;;;;;;;;;;;;;;;5017273;28;7141;-50
2023/03/03 08:47:30;;;;;;;;;;;;;;;;;;5017767;28;7125;-48
2023/03/03 08:49:56;;;;;;;;;;;;;;;;;;5016966;28;7164;-50
2023/03/03 08:52:21;;;;;;;;;;;;;;;;;;5016736;28;7751;-48
2023/03/03 08:54:47;;;;;;;;;;;;;;;;;;5017361;28;6950;-49
2023/03/03 08:57:12;;;;;;;;;;;;;;;;;;5016284;28;6940;-53
2023/03/03 09:05:19;;;;;;;;;;;;;;;;;;5035103;28;7094;-52
2023/03/03 09:07:46;;;;;;;;;;;;;;;;;;5036584;28;7363;-47
2023/03/03 09:10:13;;;;;;;;;;;;;;;;;;5036701;28;7124;-50
2023/03/03 09:12:41;;;;;;;;;;;;;;;;;;5037093;28;7018;-54
2023/03/03 09:17:36;;;;;;;;;;;;;;;;;;5014677;28;6964;-52
2023/03/03 09:20:21;;;;;;;;;;;;;;;;;;5012489;28;8626;-49
2023/03/03 09:22:49;;;;;;;;;;;;;;;;;;4995705;28;8475;-48
2023/03/03 09:25:21;;;;;;;;;;;;;;;;;;4995983;28;8651;-48
2023/03/03 09:27:47;;;;;;;;;;;;;;;;;;5012635;28;8744;-51
2023/03/03 09:30:43;;;;;;;;;;;;;;;;;;5012755;28;8393;-49
2023/03/03 09:33:30;;;;;;;;;;;;;;;;;;4996434;28;7454;-49
2023/03/03 09:36:23;;;;;;;;;;;;;;;;;;4997429;28;6943;-51
2023/03/03 09:39:09;;;;;;;;;;;;;;;;;;4996654;28;7406;-48
2023/03/03 09:41:53;;;;;;;;;;;;;;;;;;4997199;28;7135;-49
2023/03/03 09:44:21;;;;;;;;;;;;;;;;;;4996695;28;7510;-49
2023/03/03 09:50:08;;;;;;;;;;;;;;;;;;4996372;28;6681;-49
2023/03/03 09:56:08;;;;;;;;;;;;;;;;;;4996754;28;6784;-61
2023/03/03 09:59:10;;;;;;;;;;;;;;;;;;4996534;28;7771;-61
2023/03/03 10:01:41;;;;;;;;;;;;;;;;;;4995565;28;6964;-61
2023/03/03 10:04:25;;;;;;;;;;;;;;;;;;4996150;28;7171;-61
2023/03/03 10:06:50;;;;;;;;;;;;;;;;;;5001229;28;7405;-62
2023/03/03 10:09:34;;;;;;;;;;;;;;;;;;5015231;28;7073;-62
2023/03/03 10:12:18;;;;;;;;;;;;;;;;;;5010954;28;8406;-61
2023/03/03 10:15:02;;;;;;;;;;;;;;;;;;5010413;28;7278;-62
2023/03/03 10:17:46;;;;;;;;;;;;;;;;;;5015180;28;7460;-62
2023/03/03 10:20:39;;;;;;;;;;;;;;;;;;5015300;28;7264;-62
2023/03/03 10:23:19;;;;;;;;;;;;;;;;;;5015090;28;7268;-62
2023/03/03 10:29:03;;;;;;;;;;;;;;;;;;5007140;28;6929;-62
2023/03/03 10:34:59;;;;;;;;;;;;;;;;;;5015026;28;6757;-62
2023/03/03 10:37:28;;;;;;;;;;;;;;;;;;5015540;28;7426;-62
2023/03/03 10:43:13;;;;;;;;;;;;;;;;;;5015356;28;6995;-62
2023/03/03 10:46:05;;;;;;;;;;;;;;;;;;5015247;28;7371;-62
2023/03/03 10:48:50;;;;;;;;;;;;;;;;;;5030100;28;7057;-61
2023/03/03 10:51:28;;;;;;;;;;;;;;;;;;5015175;28;6826;-61
2023/03/03 10:54:22;;;;;;;;;;;;;;;;;;5015011;28;7283;-61
2023/03/03 10:57:03;;;;;;;;;;;;;;;;;;5015091;28;7134;-63
2023/03/03 10:59:46;;;;;;;;;;;;;;;;;;5015341;28;7518;-62
2023/03/03 11:02:46;;;;;;;;;;;;;;;;;;5015523;28;7599;-62
2023/03/03 11:08:11;;;;;;;;;;;;;;;;;;5014927;28;7036;-62
2023/03/03 11:11:02;;;;;;;;;;;;;;;;;;5014689;28;7349;-63
2023/03/03 11:13:37;;;;;;;;;;;;;;;;;;5017502;28;7039;-63
2023/03/03 11:16:32;;;;;;;;;;;;;;;;;;5017395;28;7184;-63
2023/03/03 11:19:04;;;;;;;;;;;;;;;;;;5017367;28;8559;-63
2023/03/03 11:21:36;;;;;;;;;;;;;;;;;;5018799;28;7067;-63
2023/03/03 11:27:21;;;;;;;;;;;;;;;;;;5018607;28;6805;-63
2023/03/03 11:29:50;;;;;;;;;;;;;;;;;;5018562;28;7188;-63
2023/03/03 11:32:15;;;;;;;;;;;;;;;;;;5018620;28;7227;-63
2023/03/03 11:34:43;;;;;;;;;;;;;;;;;;5018362;28;7014;-63
2023/03/03 11:37:15;;;;;;;;;;;;;;;;;;5018472;28;6970;-62
2023/03/03 11:45:59;;;;;;;;;;;;;;;;;;5018064;28;6754;-57
2023/03/03 11:48:33;;;;;;;;;;;;;;;;;;5018106;28;7188;-56
2023/03/03 12:06:39;;;;;;;;;;;;;;;;;;4999098;28;6969;-54
2023/03/03 12:09:42;;;;;;;;;;;;;;;;;;4997620;28;7095;-55
2023/03/03 12:12:15;;;;;;;;;;;;;;;;;;4997938;28;8912;-54
2023/03/03 12:17:34;;;;;;;;;;;;;;;;;;4999096;28;6950;-55
2023/03/03 12:20:19;;;;;;;;;;;;;;;;;;4997827;28;7422;-52
2023/03/03 12:25:45;;;;;;;;;;;;;;;;;;4997482;28;6931;-54
2023/03/03 12:28:19;;;;;;;;;;;;;;;;;;4997723;28;7304;-54
2023/03/03 12:30:48;;;;;;;;;;;;;;;;;;4996639;28;8511;-51
2023/03/03 12:33:16;;;;;;;;;;;;;;;;;;4998269;28;7398;-54
2023/03/03 12:36:00;;;;;;;;;;;;;;;;;;4998733;28;7198;-55
2023/03/03 12:41:55;;;;;;;;;;;;;;;;;;4997885;28;6677;-55
2023/03/03 12:44:31;;;;;;;;;;;;;;;;;;4997645;28;7275;-52
2023/03/03 12:50:24;;;;;;;;;;;;;;;;;;4997534;28;6997;-54
2023/03/03 12:56:03;;;;;;;;;;;;;;;;;;4997434;28;6705;-51
2023/03/03 12:58:31;;;;;;;;;;;;;;;;;;4997157;28;6949;-53
2023/03/03 13:01:48;;;;;;;;;;;;;;;;;;4997551;28;7488;-53
2023/03/03 13:07:45;;;;;;;;;;;;;;;;;;4844077;29;6778;-52
2023/03/03 13:13:14;;;;;;;;;;;;;;;;;;4844018;29;6947;-53
2023/03/03 13:15:57;;;;;;;;;;;;;;;;;;4843676;29;7241;-50
2023/03/03 13:18:37;;;;;;;;;;;;;;;;;;4843805;29;7392;-54
2023/03/03 13:21:19;;;;;;;;;;;;;;;;;;4843431;29;7454;-51
2023/03/03 13:24:03;;;;;;;;;;;;;;;;;;4843479;29;6939;-55
2023/03/03 13:29:35;;;;;;;;;;;;;;;;;;4843461;29;7002;-54
2023/03/03 13:35:28;;;;;;;;;;;;;;;;;;4888540;29;7841;-53
2023/03/03 13:37:55;;;;;;;;;;;;;;;;;;4917415;29;7042;-53
2023/03/03 13:40:21;;;;;;;;;;;;;;;;;;4917753;29;8762;-49
2023/03/03 13:45:49;;;;;;;;;;;;;;;;;;4996439;28;6933;-53
2023/03/03 13:48:23;;;;;;;;;;;;;;;;;;4996384;28;7129;-54
2023/03/03 13:50:51;;;;;;;;;;;;;;;;;;4997192;28;6967;-54
2023/03/03 13:53:16;;;;;;;;;;;;;;;;;;4996175;28;6976;-54
2023/03/03 14:08:06;;;;;;;;;;;;;;;;;;4936220;29;6678;-52
2023/03/03 14:13:40;;;;;;;;;;;;;;;;;;4861367;29;6975;-55
2023/03/03 14:16:12;;;;;;;;;;;;;;;;;;4861036;29;8385;-56
2023/03/03 14:18:51;;;;;;;;;;;;;;;;;;4860034;29;7337;-52
2023/03/03 14:21:22;;;;;;;;;;;;;;;;;;4860061;29;7248;-53
2023/03/03 14:26:46;;;;;;;;;;;;;;;;;;4860660;29;7335;-54
2023/03/03 14:29:19;;;;;;;;;;;;;;;;;;4860819;29;7304;-53
2023/03/03 14:34:57;;;;;;;;;;;;;;;;;;4860977;29;6966;-54
2023/03/03 14:37:25;;;;;;;;;;;;;;;;;;4864900;29;7172;-57
2023/03/03 14:40:06;;;;;;;;;;;;;;;;;;4935910;29;7119;-54
2023/03/03 14:42:32;;;;;;;;;;;;;;;;;;4935983;29;7100;-54
2023/03/03 14:45:00;;;;;;;;;;;;;;;;;;4935789;29;7590;-53
2023/03/03 14:47:27;;;;;;;;;;;;;;;;;;4961050;28;7186;-51
2023/03/03 14:49:59;;;;;;;;;;;;;;;;;;4995582;28;6947;-52
2023/03/03 14:52:27;;;;;;;;;;;;;;;;;;4995536;28;7177;-54
2023/03/03 14:54:55;;;;;;;;;;;;;;;;;;4995583;28;7206;-50
2023/03/03 15:00:24;;;;;;;;;;;;;;;;;;5019748;28;8559;-56
2023/03/03 15:03:22;;;;;;;;;;;;;;;;;;5015012;28;7182;-52
2023/03/03 15:05:51;;;;;;;;;;;;;;;;;;5015539;28;7199;-56
2023/03/03 15:11:49;;;;;;;;;;;;;;;;;;5014437;28;6910;-57
2023/03/03 15:14:17;;;;;;;;;;;;;;;;;;5014992;28;7218;-52
2023/03/03 15:16:45;;;;;;;;;;;;;;;;;;5012508;28;7151;-55
2023/03/03 15:22:21;;;;;;;;;;;;;;;;;;5049196;23;6713;-52
2023/03/03 15:25:09;;;;;;;;;;;;;;;;;;5014999;28;7372;-52
2023/03/03 15:27:40;;;;;;;;;;;;;;;;;;5000003;28;7201;-52
2023/03/03 15:30:09;;;;;;;;;;;;;;;;;;4995273;28;7383;-51
2023/03/03 15:32:34;;;;;;;;;;;;;;;;;;4995076;28;7357;-52
2023/03/03 15:35:24;;;;;;;;;;;;;;;;;;4995643;28;7091;-49
2023/03/03 15:38:16;;;;;;;;;;;;;;;;;;4994334;28;7245;-52
2023/03/03 15:40:52;;;;;;;;;;;;;;;;;;4994760;28;7093;-56
2023/03/03 15:46:44;;;;;;;;;;;;;;;;;;4994821;28;6918;-53
2023/03/03 15:49:28;;;;;;;;;;;;;;;;;;4994930;28;7291;-55
2023/03/03 15:52:23;;;;;;;;;;;;;;;;;;4977179;28;7066;-51
2023/03/03 15:54:49;;;;;;;;;;;;;;;;;;4999639;28;7476;-53
2023/03/03 15:57:15;;;;;;;;;;;;;;;;;;5015095;28;7182;-50
2023/03/03 15:59:59;;;;;;;;;;;;;;;;;;5015623;28;7310;-52
2023/03/03 16:02:53;;;;;;;;;;;;;;;;;;5018048;28;7074;-50
2023/03/03 16:05:29;;;;;;;;;;;;;;;;;;4964564;28;7233;-53
2023/03/03 16:11:03;;;;;;;;;;;;;;;;;;5004097;28;6961;-49
2023/03/03 16:13:28;;;;;;;;;;;;;;;;;;5017801;28;6925;-54
2023/03/03 16:16:14;;;;;;;;;;;;;;;;;;5017895;28;7126;-51
2023/03/03 16:22:01;;;;;;;;;;;;;;;;;;5017498;28;7489;-52
2023/03/03 16:24:45;;;;;;;;;;;;;;;;;;5016955;28;7077;-51
2023/03/03 16:27:11;;;;;;;;;;;;;;;;;;4994830;28;6869;-51
2023/03/03 16:29:40;;;;;;;;;;;;;;;;;;4997917;28;7300;-53
2023/03/03 16:32:33;;;;;;;;;;;;;;;;;;4997853;28;7161;-49
2023/03/03 16:34:58;;;;;;;;;;;;;;;;;;4997963;28;7119;-53
2023/03/03 16:40:58;;;;;;;;;;;;;;;;;;4988607;28;6778;-50
2023/03/03 16:49:35;;;;;;;;;;;;;;;;;;4997462;28;6738;-53
2023/03/03 16:52:24;;;;;;;;;;;;;;;;;;4997208;28;7235;-51
2023/03/03 16:58:13;;;;;;;;;;;;;;;;;;4997890;28;6977;-50
2023/03/03 17:01:01;;;;;;;;;;;;;;;;;;5004073;28;6957;-53
2023/03/03 17:03:58;;;;;;;;;;;;;;;;;;5016052;28;7416;-52
2023/03/03 17:06:35;;;;;;;;;;;;;;;;;;5016891;28;7245;-49
2023/03/03 17:09:03;;;;;;;;;;;;;;;;;;5016768;28;7074;-51
2023/03/03 17:11:37;;;;;;;;;;;;;;;;;;5016496;28;7169;-51
2023/03/03 17:20:27;;;;;;;;;;;;;;;;;;5016814;28;6682;-53
2023/03/03 17:23:13;;;;;;;;;;;;;;;;;;5015551;28;6886;-50
2023/03/03 17:25:45;;;;;;;;;;;;;;;;;;5016492;28;7252;-49
2023/03/03 17:28:29;;;;;;;;;;;;;;;;;;5016189;28;6967;-50
2023/03/03 17:34:15;;;;;;;;;;;;;;;;;;5016550;28;6689;-51
2023/03/03 17:40:06;;;;;;;;;;;;;;;;;;5016452;28;6916;-49
2023/03/03 17:42:50;;;;;;;;;;;;;;;;;;5109533;22;7496;-61
2023/03/03 17:45:17;;;;;;;;;;;;;;;;;;5036065;28;7538;-52
2023/03/03 17:47:48;;;;;;;;;;;;;;;;;;5035706;28;7199;-55
2023/03/03 17:50:29;;;;;;;;;;;;;;;;;;5035526;28;6941;-51
2023/03/03 17:53:13;;;;;;;;;;;;;;;;;;5017840;28;8466;-54
2023/03/03 17:59:12;;;;;;;;;;;;;;;;;;5036198;28;6970;-55
2023/03/03 18:01:58;;;;;;;;;;;;;;;;;;5035759;28;6972;-52
2023/03/03 18:04:42;;;;;;;;;;;;;;;;;;5035555;28;7199;-51
2023/03/03 18:07:26;;;;;;;;;;;;;;;;;;5036063;28;7217;-53
2023/03/03 18:10:05;;;;;;;;;;;;;;;;;;5035513;28;7369;-54
2023/03/03 18:12:50;;;;;;;;;;;;;;;;;;5035574;28;7198;-50
2023/03/03 18:15:18;;;;;;;;;;;;;;;;;;5035398;28;7990;-54
2023/03/03 18:20:55;;;;;;;;;;;;;;;;;;5035065;28;6912;-54
2023/03/03 18:23:26;;;;;;;;;;;;;;;;;;5035308;28;6951;-52
2023/03/03 18:26:15;;;;;;;;;;;;;;;;;;5035189;28;7389;-51
2023/03/03 18:28:49;;;;;;;;;;;;;;;;;;5035209;28;7120;-50
2023/03/03 18:31:23;;;;;;;;;;;;;;;;;;5035539;28;7338;-53
2023/03/03 18:42:58;;;;;;;;;;;;;;;;;;5032467;28;6681;-51
2023/03/03 18:48:45;;;;;;;;;;;;;;;;;;5034930;28;7019;-52
2023/03/03 19:03:55;;;;;;;;;;;;;;;;;;5034461;28;6700;-53
2023/03/03 19:07:00;;;;;;;;;;;;;;;;;;5034827;28;7084;-52
2023/03/03 19:09:48;;;;;;;;;;;;;;;;;;5034717;28;7143;-53
2023/03/03 19:12:15;;;;;;;;;;;;;;;;;;5034772;28;7152;-50
2023/03/03 19:14:44;;;;;;;;;;;;;;;;;;5034654;28;7177;-55
2023/03/03 19:17:35;;;;;;;;;;;;;;;;;;5034994;28;7187;-54
2023/03/03 19:20:17;;;;;;;;;;;;;;;;;;5035152;28;7207;-54
2023/03/03 19:35:17;;;;;;;;;;;;;;;;;;5038098;28;6964;-52
2023/03/03 19:37:45;;;;;;;;;;;;;;;;;;5039326;28;7269;-52
2023/03/03 19:43:36;;;;;;;;;;;;;;;;;;4957890;28;7007;-51
2023/03/03 19:46:34;;;;;;;;;;;;;;;;;;4958135;28;6992;-52
2023/03/03 19:49:06;;;;;;;;;;;;;;;;;;4958330;28;7130;-54
2023/03/03 19:51:46;;;;;;;;;;;;;;;;;;4957926;28;7141;-53
2023/03/03 19:54:27;;;;;;;;;;;;;;;;;;4958076;28;7274;-54
2023/03/03 19:56:54;;;;;;;;;;;;;;;;;;4958710;28;7293;-52
2023/03/03 19:59:34;;;;;;;;;;;;;;;;;;4957997;28;6952;-50
2023/03/03 20:02:00;;;;;;;;;;;;;;;;;;4957707;28;7149;-54
2023/03/03 20:07:46;;;;;;;;;;;;;;;;;;4957653;28;6706;-50
2023/03/03 20:10:14;;;;;;;;;;;;;;;;;;4957786;28;6949;-52
2023/03/03 20:13:12;;;;;;;;;;;;;;;;;;4957736;28;7411;-50
2023/03/03 20:15:43;;;;;;;;;;;;;;;;;;4957831;28;7379;-56
2023/03/03 20:18:31;;;;;;;;;;;;;;;;;;4957423;28;7192;-48
2023/03/03 20:21:06;;;;;;;;;;;;;;;;;;4993507;28;7245;-49
2023/03/03 20:23:44;;;;;;;;;;;;;;;;;;4998088;28;7271;-50
2023/03/03 20:26:26;;;;;;;;;;;;;;;;;;4998182;28;7404;-51
2023/03/03 20:32:00;;;;;;;;;;;;;;;;;;5017121;28;6728;-49
2023/03/03 20:34:54;;;;;;;;;;;;;;;;;;5017310;28;7440;-49
2023/03/03 20:37:35;;;;;;;;;;;;;;;;;;5016659;28;7313;-50
2023/03/03 20:40:19;;;;;;;;;;;;;;;;;;5017467;28;7360;-51
2023/03/03 20:42:44;;;;;;;;;;;;;;;;;;5017184;28;7179;-52
2023/03/03 20:45:10;;;;;;;;;;;;;;;;;;5017803;28;7021;-49
2023/03/03 20:47:36;;;;;;;;;;;;;;;;;;5019228;28;6939;-53
2023/03/03 20:56:21;;;;;;;;;;;;;;;;;;4967256;28;7169;-49
2023/03/03 21:02:16;;;;;;;;;;;;;;;;;;4971762;28;7007;-53
2023/03/03 21:04:42;;;;;;;;;;;;;;;;;;4976503;28;8289;-51
2023/03/03 21:10:25;;;;;;;;;;;;;;;;;;4976650;28;7002;-48
2023/03/03 21:12:53;;;;;;;;;;;;;;;;;;4974959;28;7114;-51
2023/03/03 21:18:25;;;;;;;;;;;;;;;;;;4971278;28;7171;-51
2023/03/03 21:20:50;;;;;;;;;;;;;;;;;;4975275;28;7050;-54
2023/03/03 21:23:39;;;;;;;;;;;;;;;;;;4975415;28;7274;-49
2023/03/03 21:26:05;;;;;;;;;;;;;;;;;;4982152;28;7220;-53
2023/03/03 21:28:33;;;;;;;;;;;;;;;;;;5036933;28;7235;-51
2023/03/03 21:31:00;;;;;;;;;;;;;;;;;;5031972;28;7167;-51
2023/03/03 21:33:45;;;;;;;;;;;;;;;;;;5036046;28;7172;-50
2023/03/03 21:36:12;;;;;;;;;;;;;;;;;;5036263;28;7150;-50
2023/03/03 21:38:39;;;;;;;;;;;;;;;;;;5036124;28;7025;-49
2023/03/03 21:41:07;;;;;;;;;;;;;;;;;;5036199;28;6961;-53
2023/03/03 21:43:38;;;;;;;;;;;;;;;;;;5014100;28;7193;-53
2023/03/03 21:49:22;;;;;;;;;;;;;;;;;;5015939;28;6693;-49
2023/03/03 21:51:48;;;;;;;;;;;;;;;;;;5015845;28;6955;-51
2023/03/03 21:54:13;;;;;;;;;;;;;;;;;;5015888;28;7415;-55
2023/03/03 21:59:42;;;;;;;;;;;;;;;;;;5016102;28;6925;-50
2023/03/03 22:05:19;;;;;;;;;;;;;;;;;;5015637;28;6905;-54
2023/03/03 22:07:45;;;;;;;;;;;;;;;;;;5015844;28;7128;-50
2023/03/03 22:10:10;;;;;;;;;;;;;;;;;;5015830;28;7010;-54
2023/03/03 22:13:01;;;;;;;;;;;;;;;;;;5015798;28;7134;-53
2023/03/03 22:15:29;;;;;;;;;;;;;;;;;;5015406;28;8182;-51
2023/03/03 22:18:17;;;;;;;;;;;;;;;;;;5015731;28;7038;-53
2023/03/03 22:20:43;;;;;;;;;;;;;;;;;;5015676;28;7107;-50
2023/03/03 22:26:12;;;;;;;;;;;;;;;;;;5015312;28;6698;-54
2023/03/03 22:29:05;;;;;;;;;;;;;;;;;;5015330;28;7077;-51
2023/03/03 22:31:31;;;;;;;;;;;;;;;;;;5015442;28;7221;-51
2023/03/03 22:33:56;;;;;;;;;;;;;;;;;;5015401;28;7012;-48
2023/03/03 22:36:22;;;;;;;;;;;;;;;;;;5015266;28;7133;-50
2023/03/03 22:42:00;;;;;;;;;;;;;;;;;;5014974;28;6938;-50
2023/03/03 22:47:57;;;;;;;;;;;;;;;;;;5034775;28;6694;-55
2023/03/03 22:50:23;;;;;;;;;;;;;;;;;;5035272;28;7124;-51
2023/03/03 22:52:59;;;;;;;;;;;;;;;;;;5035422;28;7130;-53
2023/03/03 22:55:25;;;;;;;;;;;;;;;;;;5034963;28;6961;-50
2023/03/03 22:57:50;;;;;;;;;;;;;;;;;;5034898;28;7121;-51
2023/03/03 23:00:16;;;;;;;;;;;;;;;;;;5034730;28;7086;-51
2023/03/03 23:02:41;;;;;;;;;;;;;;;;;;5035030;28;7125;-55
2023/03/03 23:05:38;;;;;;;;;;;;;;;;;;5034512;28;6962;-52
2023/03/03 23:08:05;;;;;;;;;;;;;;;;;;5034305;28;7206;-51
2023/03/03 23:10:54;;;;;;;;;;;;;;;;;;5034508;28;6976;-51
2023/03/03 23:13:20;;;;;;;;;;;;;;;;;;5035039;28;7905;-52
2023/03/03 23:15:45;;;;;;;;;;;;;;;;;;5034728;28;7466;-55
2023/03/03 23:18:11;;;;;;;;;;;;;;;;;;5034618;28;7343;-49
2023/03/03 23:29:45;;;;;;;;;;;;;;;;;;5034390;28;6928;-51
2023/03/03 23:32:10;;;;;;;;;;;;;;;;;;5034533;28;7124;-54
2023/03/03 23:34:36;;;;;;;;;;;;;;;;;;5034498;28;7170;-49
2023/03/03 23:37:02;;;;;;;;;;;;;;;;;;5034769;28;7384;-51
2023/03/03 23:39:27;;;;;;;;;;;;;;;;;;5034439;28;7106;-51
2023/03/03 23:41:55;;;;;;;;;;;;;;;;;;5034400;28;7171;-50
2023/03/03 23:44:49;;;;;;;;;;;;;;;;;;5034117;28;7015;-50
2023/03/03 23:47:15;;;;;;;;;;;;;;;;;;5034015;28;6961;-49
2023/03/03 23:49:40;;;;;;;;;;;;;;;;;;5034980;28;7120;-51
2023/03/03 23:52:05;;;;;;;;;;;;;;;;;;5033963;28;7192;-52
2023/03/03 23:54:31;;;;;;;;;;;;;;;;;;5034452;28;6999;-49
2023/03/03 23:57:01;;;;;;;;;;;;;;;;;;5034266;28;6919;-53
2023/03/03 23:59:27;;;;;;;;;;;;;;;;;;5034657;28;7160;-51
